sensor_id;sensor_type;location;lat;lon;timestamp;P1;durP1;ratioP1;P2;durP2;ratioP2
27802;SDS011;15182;48.174;11.562;2023-03-16T00:00:43;5.73;;;5.33;;
27802;SDS011;15182;48.174;11.562;2023-03-16T00:03:16;6.40;;;6.03;;
27802;SDS011;15182;48.174;11.562;2023-03-16T00:05:48;5.83;;;5.37;;
27802;SDS011;15182;48.174;11.562;2023-03-16T00:08:22;6.63;;;6.13;;
27802;SDS011;15182;48.174;11.562;2023-03-16T00:10:53;5.30;;;5.10;;
27802;SDS011;15182;48.174;11.562;2023-03-16T00:13:24;6.17;;;5.87;;
27802;SDS011;15182;48.174;11.562;2023-03-16T00:15:59;6.00;;;5.80;;
27802;SDS011;15182;48.174;11.562;2023-03-16T00:18:32;6.30;;;5.90;;
27802;SDS011;15182;48.174;11.562;2023-03-16T00:21:04;6.33;;;6.03;;
27802;SDS011;15182;48.174;11.562;2023-03-16T00:23:36;6.67;;;6.37;;
27802;SDS011;15182;48.174;11.562;2023-03-16T00:26:07;6.63;;;6.13;;
27802;SDS011;15182;48.174;11.562;2023-03-16T00:28:39;6.60;;;6.20;;
27802;SDS011;15182;48.174;11.562;2023-03-16T00:31:12;7.00;;;6.33;;
27802;SDS011;15182;48.174;11.562;2023-03-16T00:33:43;5.77;;;5.50;;
27802;SDS011;15182;48.174;11.562;2023-03-16T00:36:15;6.10;;;5.90;;
27802;SDS011;15182;48.174;11.562;2023-03-16T00:38:47;6.60;;;6.30;;
27802;SDS011;15182;48.174;11.562;2023-03-16T00:41:18;5.83;;;5.53;;
27802;SDS011;15182;48.174;11.562;2023-03-16T00:43:50;6.07;;;5.80;;
27802;SDS011;15182;48.174;11.562;2023-03-16T00:46:22;5.90;;;5.70;;
27802;SDS011;15182;48.174;11.562;2023-03-16T00:48:54;6.23;;;6.00;;
27802;SDS011;15182;48.174;11.562;2023-03-16T00:51:27;6.23;;;5.73;;
27802;SDS011;15182;48.174;11.562;2023-03-16T00:53:58;5.73;;;5.23;;
27802;SDS011;15182;48.174;11.562;2023-03-16T00:56:30;5.70;;;5.40;;
27802;SDS011;15182;48.174;11.562;2023-03-16T00:59:01;7.57;;;6.10;;
27802;SDS011;15182;48.174;11.562;2023-03-16T01:01:35;6.73;;;6.23;;
27802;SDS011;15182;48.174;11.562;2023-03-16T01:04:06;6.70;;;6.30;;
27802;SDS011;15182;48.174;11.562;2023-03-16T01:06:38;6.03;;;5.63;;
27802;SDS011;15182;48.174;11.562;2023-03-16T01:09:10;6.30;;;5.80;;
27802;SDS011;15182;48.174;11.562;2023-03-16T01:11:41;5.93;;;5.53;;
27802;SDS011;15182;48.174;11.562;2023-03-16T01:14:15;6.43;;;5.83;;
27802;SDS011;15182;48.174;11.562;2023-03-16T01:16:50;5.53;;;5.30;;
27802;SDS011;15182;48.174;11.562;2023-03-16T01:19:22;6.13;;;5.73;;
27802;SDS011;15182;48.174;11.562;2023-03-16T01:21:53;6.30;;;5.97;;
27802;SDS011;15182;48.174;11.562;2023-03-16T01:24:24;6.60;;;6.10;;
27802;SDS011;15182;48.174;11.562;2023-03-16T01:26:56;6.27;;;5.97;;
27802;SDS011;15182;48.174;11.562;2023-03-16T01:29:28;6.10;;;5.70;;
27802;SDS011;15182;48.174;11.562;2023-03-16T01:32:00;6.87;;;6.47;;
27802;SDS011;15182;48.174;11.562;2023-03-16T01:34:33;7.13;;;6.63;;
27802;SDS011;15182;48.174;11.562;2023-03-16T01:37:05;7.20;;;6.60;;
27802;SDS011;15182;48.174;11.562;2023-03-16T01:39:42;6.47;;;6.07;;
27802;SDS011;15182;48.174;11.562;2023-03-16T01:42:14;6.60;;;6.20;;
27802;SDS011;15182;48.174;11.562;2023-03-16T01:44:50;6.63;;;6.23;;
27802;SDS011;15182;48.174;11.562;2023-03-16T01:47:31;7.20;;;6.80;;
27802;SDS011;15182;48.174;11.562;2023-03-16T01:50:07;7.33;;;6.93;;
27802;SDS011;15182;48.174;11.562;2023-03-16T01:52:40;7.90;;;7.30;;
27802;SDS011;15182;48.174;11.562;2023-03-16T01:55:12;7.97;;;7.43;;
27802;SDS011;15182;48.174;11.562;2023-03-16T01:57:44;8.23;;;7.60;;
27802;SDS011;15182;48.174;11.562;2023-03-16T02:00:17;7.27;;;6.83;;
27802;SDS011;15182;48.174;11.562;2023-03-16T02:03:05;7.13;;;6.63;;
27802;SDS011;15182;48.174;11.562;2023-03-16T02:05:49;7.90;;;7.13;;
27802;SDS011;15182;48.174;11.562;2023-03-16T02:08:25;7.40;;;7.00;;
27802;SDS011;15182;48.174;11.562;2023-03-16T02:10:57;7.60;;;7.00;;
27802;SDS011;15182;48.174;11.562;2023-03-16T02:13:40;7.33;;;6.97;;
27802;SDS011;15182;48.174;11.562;2023-03-16T02:16:12;7.77;;;6.97;;
27802;SDS011;15182;48.174;11.562;2023-03-16T02:18:49;8.30;;;7.53;;
27802;SDS011;15182;48.174;11.562;2023-03-16T02:21:22;8.80;;;8.00;;
27802;SDS011;15182;48.174;11.562;2023-03-16T02:24:04;7.97;;;7.40;;
27802;SDS011;15182;48.174;11.562;2023-03-16T02:26:36;8.30;;;7.80;;
27802;SDS011;15182;48.174;11.562;2023-03-16T02:29:22;8.47;;;7.77;;
27802;SDS011;15182;48.174;11.562;2023-03-16T02:32:23;9.40;;;8.60;;
27802;SDS011;15182;48.174;11.562;2023-03-16T02:34:59;8.20;;;7.50;;
27802;SDS011;15182;48.174;11.562;2023-03-16T02:37:34;8.37;;;7.70;;
27802;SDS011;15182;48.174;11.562;2023-03-16T02:40:19;9.00;;;8.20;;
27802;SDS011;15182;48.174;11.562;2023-03-16T02:42:58;8.60;;;7.80;;
27802;SDS011;15182;48.174;11.562;2023-03-16T02:45:40;8.23;;;7.43;;
27802;SDS011;15182;48.174;11.562;2023-03-16T02:48:15;8.30;;;7.50;;
27802;SDS011;15182;48.174;11.562;2023-03-16T02:50:53;8.53;;;7.83;;
27802;SDS011;15182;48.174;11.562;2023-03-16T02:53:26;8.87;;;8.17;;
27802;SDS011;15182;48.174;11.562;2023-03-16T02:55:59;8.50;;;7.77;;
27802;SDS011;15182;48.174;11.562;2023-03-16T02:58:33;8.90;;;8.20;;
27802;SDS011;15182;48.174;11.562;2023-03-16T03:01:11;9.50;;;8.60;;
27802;SDS011;15182;48.174;11.562;2023-03-16T03:03:43;9.40;;;8.60;;
27802;SDS011;15182;48.174;11.562;2023-03-16T03:06:14;9.67;;;8.87;;
27802;SDS011;15182;48.174;11.562;2023-03-16T03:08:46;9.70;;;8.90;;
27802;SDS011;15182;48.174;11.562;2023-03-16T03:11:26;9.77;;;8.77;;
27802;SDS011;15182;48.174;11.562;2023-03-16T03:13:58;10.30;;;8.77;;
27802;SDS011;15182;48.174;11.562;2023-03-16T03:16:31;9.97;;;9.07;;
27802;SDS011;15182;48.174;11.562;2023-03-16T03:19:03;13.03;;;11.63;;
27802;SDS011;15182;48.174;11.562;2023-03-16T03:21:36;10.27;;;9.27;;
27802;SDS011;15182;48.174;11.562;2023-03-16T03:24:09;11.97;;;9.77;;
27802;SDS011;15182;48.174;11.562;2023-03-16T03:26:42;10.53;;;9.43;;
27802;SDS011;15182;48.174;11.562;2023-03-16T03:29:18;10.63;;;9.57;;
27802;SDS011;15182;48.174;11.562;2023-03-16T03:31:51;10.63;;;9.63;;
27802;SDS011;15182;48.174;11.562;2023-03-16T03:34:23;12.13;;;9.93;;
27802;SDS011;15182;48.174;11.562;2023-03-16T03:36:54;10.43;;;9.43;;
27802;SDS011;15182;48.174;11.562;2023-03-16T03:39:27;10.03;;;9.00;;
27802;SDS011;15182;48.174;11.562;2023-03-16T03:41:59;10.33;;;9.33;;
27802;SDS011;15182;48.174;11.562;2023-03-16T03:44:32;9.70;;;8.67;;
27802;SDS011;15182;48.174;11.562;2023-03-16T03:47:05;10.13;;;9.23;;
27802;SDS011;15182;48.174;11.562;2023-03-16T03:49:36;9.87;;;9.00;;
27802;SDS011;15182;48.174;11.562;2023-03-16T03:52:10;9.87;;;8.97;;
27802;SDS011;15182;48.174;11.562;2023-03-16T03:54:41;11.37;;;9.97;;
27802;SDS011;15182;48.174;11.562;2023-03-16T03:57:17;10.27;;;9.27;;
27802;SDS011;15182;48.174;11.562;2023-03-16T03:59:48;12.27;;;9.37;;
27802;SDS011;15182;48.174;11.562;2023-03-16T04:02:39;10.83;;;9.83;;
27802;SDS011;15182;48.174;11.562;2023-03-16T04:05:21;10.53;;;9.47;;
27802;SDS011;15182;48.174;11.562;2023-03-16T04:07:53;11.60;;;10.40;;
27802;SDS011;15182;48.174;11.562;2023-03-16T04:10:26;11.33;;;10.20;;
27802;SDS011;15182;48.174;11.562;2023-03-16T04:12:59;11.60;;;9.93;;
27802;SDS011;15182;48.174;11.562;2023-03-16T04:15:32;10.63;;;9.63;;
27802;SDS011;15182;48.174;11.562;2023-03-16T04:18:12;12.30;;;10.97;;
27802;SDS011;15182;48.174;11.562;2023-03-16T04:20:44;11.20;;;10.20;;
27802;SDS011;15182;48.174;11.562;2023-03-16T04:23:22;11.70;;;10.33;;
27802;SDS011;15182;48.174;11.562;2023-03-16T04:25:54;10.67;;;9.67;;
27802;SDS011;15182;48.174;11.562;2023-03-16T04:28:25;11.83;;;10.60;;
27802;SDS011;15182;48.174;11.562;2023-03-16T04:30:59;11.20;;;10.00;;
27802;SDS011;15182;48.174;11.562;2023-03-16T04:33:39;10.93;;;9.83;;
27802;SDS011;15182;48.174;11.562;2023-03-16T04:36:13;11.47;;;10.30;;
27802;SDS011;15182;48.174;11.562;2023-03-16T04:38:44;12.20;;;10.67;;
27802;SDS011;15182;48.174;11.562;2023-03-16T04:41:18;10.77;;;9.63;;
27802;SDS011;15182;48.174;11.562;2023-03-16T04:43:56;16.63;;;11.30;;
27802;SDS011;15182;48.174;11.562;2023-03-16T04:46:29;11.33;;;10.23;;
27802;SDS011;15182;48.174;11.562;2023-03-16T04:49:05;12.03;;;10.77;;
27802;SDS011;15182;48.174;11.562;2023-03-16T04:51:40;12.57;;;11.27;;
27802;SDS011;15182;48.174;11.562;2023-03-16T04:54:16;13.03;;;10.90;;
27802;SDS011;15182;48.174;11.562;2023-03-16T04:56:48;14.90;;;10.47;;
27802;SDS011;15182;48.174;11.562;2023-03-16T04:59:31;13.87;;;11.37;;
27802;SDS011;15182;48.174;11.562;2023-03-16T05:02:26;11.00;;;9.93;;
27802;SDS011;15182;48.174;11.562;2023-03-16T05:05:01;11.23;;;10.00;;
27802;SDS011;15182;48.174;11.562;2023-03-16T05:07:37;15.43;;;11.23;;
27802;SDS011;15182;48.174;11.562;2023-03-16T05:10:08;11.80;;;10.10;;
27802;SDS011;15182;48.174;11.562;2023-03-16T05:12:43;12.10;;;9.83;;
27802;SDS011;15182;48.174;11.562;2023-03-16T05:15:17;14.20;;;11.27;;
27802;SDS011;15182;48.174;11.562;2023-03-16T05:17:57;11.50;;;10.30;;
27802;SDS011;15182;48.174;11.562;2023-03-16T05:20:30;13.47;;;10.70;;
27802;SDS011;15182;48.174;11.562;2023-03-16T05:23:03;12.97;;;10.23;;
27802;SDS011;15182;48.174;11.562;2023-03-16T05:25:41;13.40;;;10.97;;
27802;SDS011;15182;48.174;11.562;2023-03-16T05:28:15;12.30;;;9.93;;
27802;SDS011;15182;48.174;11.562;2023-03-16T05:30:57;12.73;;;11.10;;
27802;SDS011;15182;48.174;11.562;2023-03-16T05:33:34;11.50;;;10.30;;
27802;SDS011;15182;48.174;11.562;2023-03-16T05:36:10;12.30;;;9.93;;
27802;SDS011;15182;48.174;11.562;2023-03-16T05:38:45;11.70;;;10.50;;
27802;SDS011;15182;48.174;11.562;2023-03-16T05:41:34;12.23;;;9.93;;
27802;SDS011;15182;48.174;11.562;2023-03-16T05:44:27;13.27;;;10.10;;
27802;SDS011;15182;48.174;11.562;2023-03-16T05:47:08;11.23;;;10.07;;
27802;SDS011;15182;48.174;11.562;2023-03-16T05:49:44;12.33;;;10.73;;
27802;SDS011;15182;48.174;11.562;2023-03-16T05:52:27;10.17;;;8.70;;
27802;SDS011;15182;48.174;11.562;2023-03-16T05:55:02;10.53;;;9.43;;
27802;SDS011;15182;48.174;11.562;2023-03-16T05:57:35;10.97;;;9.97;;
27802;SDS011;15182;48.174;11.562;2023-03-16T06:00:11;10.50;;;9.60;;
27802;SDS011;15182;48.174;11.562;2023-03-16T06:02:50;13.27;;;11.80;;
27802;SDS011;15182;48.174;11.562;2023-03-16T06:05:28;11.47;;;10.37;;
27802;SDS011;15182;48.174;11.562;2023-03-16T06:08:02;11.40;;;10.17;;
27802;SDS011;15182;48.174;11.562;2023-03-16T06:10:36;12.03;;;10.67;;
27802;SDS011;15182;48.174;11.562;2023-03-16T06:13:07;11.00;;;9.83;;
27802;SDS011;15182;48.174;11.562;2023-03-16T06:15:39;10.63;;;9.60;;
27802;SDS011;15182;48.174;11.562;2023-03-16T06:18:14;11.47;;;10.37;;
27802;SDS011;15182;48.174;11.562;2023-03-16T06:20:46;11.57;;;10.37;;
27802;SDS011;15182;48.174;11.562;2023-03-16T06:23:19;10.90;;;9.80;;
27802;SDS011;15182;48.174;11.562;2023-03-16T06:25:50;11.20;;;10.10;;
27802;SDS011;15182;48.174;11.562;2023-03-16T06:28:26;10.53;;;9.43;;
27802;SDS011;15182;48.174;11.562;2023-03-16T06:30:58;12.67;;;10.83;;
27802;SDS011;15182;48.174;11.562;2023-03-16T06:33:35;12.03;;;10.33;;
27802;SDS011;15182;48.174;11.562;2023-03-16T06:36:06;11.23;;;9.80;;
27802;SDS011;15182;48.174;11.562;2023-03-16T06:38:45;10.63;;;9.63;;
27802;SDS011;15182;48.174;11.562;2023-03-16T06:41:27;10.67;;;9.73;;
27802;SDS011;15182;48.174;11.562;2023-03-16T06:44:00;10.93;;;9.93;;
27802;SDS011;15182;48.174;11.562;2023-03-16T06:46:36;12.33;;;10.40;;
27802;SDS011;15182;48.174;11.562;2023-03-16T06:49:07;11.00;;;9.80;;
27802;SDS011;15182;48.174;11.562;2023-03-16T06:51:41;11.30;;;10.03;;
27802;SDS011;15182;48.174;11.562;2023-03-16T06:54:14;11.47;;;10.37;;
27802;SDS011;15182;48.174;11.562;2023-03-16T06:56:46;12.30;;;10.57;;
27802;SDS011;15182;48.174;11.562;2023-03-16T06:59:17;15.27;;;10.80;;
27802;SDS011;15182;48.174;11.562;2023-03-16T07:01:48;11.37;;;10.30;;
27802;SDS011;15182;48.174;11.562;2023-03-16T07:04:19;11.37;;;10.17;;
27802;SDS011;15182;48.174;11.562;2023-03-16T07:06:51;10.83;;;9.73;;
27802;SDS011;15182;48.174;11.562;2023-03-16T07:09:23;13.90;;;10.10;;
27802;SDS011;15182;48.174;11.562;2023-03-16T07:11:56;11.83;;;10.63;;
27802;SDS011;15182;48.174;11.562;2023-03-16T07:14:32;11.17;;;10.13;;
27802;SDS011;15182;48.174;11.562;2023-03-16T07:17:03;11.40;;;10.20;;
27802;SDS011;15182;48.174;11.562;2023-03-16T07:19:37;11.10;;;10.07;;
27802;SDS011;15182;48.174;11.562;2023-03-16T07:22:08;12.77;;;9.53;;
27802;SDS011;15182;48.174;11.562;2023-03-16T07:24:41;11.87;;;9.47;;
27802;SDS011;15182;48.174;11.562;2023-03-16T07:27:16;11.00;;;9.90;;
27802;SDS011;15182;48.174;11.562;2023-03-16T07:29:51;11.27;;;9.77;;
27802;SDS011;15182;48.174;11.562;2023-03-16T07:32:25;10.50;;;8.63;;
27802;SDS011;15182;48.174;11.562;2023-03-16T07:34:57;13.07;;;10.87;;
27802;SDS011;15182;48.174;11.562;2023-03-16T07:37:31;11.03;;;9.77;;
27802;SDS011;15182;48.174;11.562;2023-03-16T07:40:06;12.33;;;10.37;;
27802;SDS011;15182;48.174;11.562;2023-03-16T07:42:42;12.27;;;10.73;;
27802;SDS011;15182;48.174;11.562;2023-03-16T07:45:22;13.80;;;10.43;;
27802;SDS011;15182;48.174;11.562;2023-03-16T07:47:53;13.93;;;11.23;;
27802;SDS011;15182;48.174;11.562;2023-03-16T07:50:47;11.70;;;10.50;;
27802;SDS011;15182;48.174;11.562;2023-03-16T07:53:19;11.20;;;10.10;;
27802;SDS011;15182;48.174;11.562;2023-03-16T07:56:04;10.23;;;9.23;;
27802;SDS011;15182;48.174;11.562;2023-03-16T07:58:41;10.33;;;9.20;;
27802;SDS011;15182;48.174;11.562;2023-03-16T08:01:12;10.90;;;9.80;;
27802;SDS011;15182;48.174;11.562;2023-03-16T08:03:45;11.00;;;9.90;;
27802;SDS011;15182;48.174;11.562;2023-03-16T08:06:16;11.07;;;10.07;;
27802;SDS011;15182;48.174;11.562;2023-03-16T08:08:50;13.37;;;10.50;;
27802;SDS011;15182;48.174;11.562;2023-03-16T08:11:29;10.67;;;9.60;;
27802;SDS011;15182;48.174;11.562;2023-03-16T08:14:03;11.63;;;9.97;;
27802;SDS011;15182;48.174;11.562;2023-03-16T08:16:56;10.80;;;9.70;;
27802;SDS011;15182;48.174;11.562;2023-03-16T08:19:28;13.03;;;9.53;;
27802;SDS011;15182;48.174;11.562;2023-03-16T08:22:01;9.47;;;8.50;;
27802;SDS011;15182;48.174;11.562;2023-03-16T08:24:40;11.47;;;10.27;;
27802;SDS011;15182;48.174;11.562;2023-03-16T08:27:15;10.53;;;9.43;;
27802;SDS011;15182;48.174;11.562;2023-03-16T08:29:53;10.50;;;9.30;;
27802;SDS011;15182;48.174;11.562;2023-03-16T08:32:29;9.97;;;9.03;;
27802;SDS011;15182;48.174;11.562;2023-03-16T08:35:02;9.97;;;8.97;;
27802;SDS011;15182;48.174;11.562;2023-03-16T08:37:38;10.03;;;9.13;;
27802;SDS011;15182;48.174;11.562;2023-03-16T08:40:12;11.17;;;10.00;;
27802;SDS011;15182;48.174;11.562;2023-03-16T08:42:48;10.97;;;9.77;;
27802;SDS011;15182;48.174;11.562;2023-03-16T08:45:21;14.33;;;11.23;;
27802;SDS011;15182;48.174;11.562;2023-03-16T08:47:54;13.77;;;11.10;;
27802;SDS011;15182;48.174;11.562;2023-03-16T08:50:25;11.57;;;10.20;;
27802;SDS011;15182;48.174;11.562;2023-03-16T08:52:58;10.40;;;9.30;;
27802;SDS011;15182;48.174;11.562;2023-03-16T08:55:29;10.23;;;9.00;;
27802;SDS011;15182;48.174;11.562;2023-03-16T08:58:03;9.67;;;8.70;;
27802;SDS011;15182;48.174;11.562;2023-03-16T09:00:35;10.83;;;9.83;;
27802;SDS011;15182;48.174;11.562;2023-03-16T09:03:07;10.07;;;9.07;;
27802;SDS011;15182;48.174;11.562;2023-03-16T09:05:38;9.67;;;8.77;;
27802;SDS011;15182;48.174;11.562;2023-03-16T09:08:09;9.57;;;8.57;;
27802;SDS011;15182;48.174;11.562;2023-03-16T09:10:41;10.90;;;9.80;;
27802;SDS011;15182;48.174;11.562;2023-03-16T09:13:14;10.90;;;9.70;;
27802;SDS011;15182;48.174;11.562;2023-03-16T09:15:47;11.27;;;9.60;;
27802;SDS011;15182;48.174;11.562;2023-03-16T09:18:18;9.63;;;8.63;;
27802;SDS011;15182;48.174;11.562;2023-03-16T09:20:53;10.13;;;9.00;;
27802;SDS011;15182;48.174;11.562;2023-03-16T09:23:27;14.73;;;9.40;;
27802;SDS011;15182;48.174;11.562;2023-03-16T09:26:03;11.53;;;9.10;;
27802;SDS011;15182;48.174;11.562;2023-03-16T09:28:36;11.17;;;9.20;;
27802;SDS011;15182;48.174;11.562;2023-03-16T09:31:08;8.60;;;7.80;;
27802;SDS011;15182;48.174;11.562;2023-03-16T09:33:45;9.53;;;8.63;;
27802;SDS011;15182;48.174;11.562;2023-03-16T09:36:16;9.47;;;8.57;;
27802;SDS011;15182;48.174;11.562;2023-03-16T09:38:49;9.50;;;8.70;;
27802;SDS011;15182;48.174;11.562;2023-03-16T09:41:25;8.70;;;7.80;;
27802;SDS011;15182;48.174;11.562;2023-03-16T09:44:10;9.23;;;8.43;;
27802;SDS011;15182;48.174;11.562;2023-03-16T09:46:55;11.63;;;8.47;;
27802;SDS011;15182;48.174;11.562;2023-03-16T09:49:32;8.30;;;7.67;;
27802;SDS011;15182;48.174;11.562;2023-03-16T09:52:12;8.40;;;7.50;;
27802;SDS011;15182;48.174;11.562;2023-03-16T09:54:56;8.30;;;7.60;;
27802;SDS011;15182;48.174;11.562;2023-03-16T09:57:33;9.37;;;8.50;;
27802;SDS011;15182;48.174;11.562;2023-03-16T10:00:15;8.80;;;7.53;;
27802;SDS011;15182;48.174;11.562;2023-03-16T10:02:57;9.47;;;8.67;;
27802;SDS011;15182;48.174;11.562;2023-03-16T10:05:36;9.97;;;8.43;;
27802;SDS011;15182;48.174;11.562;2023-03-16T10:08:09;8.80;;;7.87;;
27802;SDS011;15182;48.174;11.562;2023-03-16T10:13:48;11.37;;;7.47;;
27802;SDS011;15182;48.174;11.562;2023-03-16T10:16:31;8.17;;;7.50;;
27802;SDS011;15182;48.174;11.562;2023-03-16T10:19:08;9.30;;;8.00;;
27802;SDS011;15182;48.174;11.562;2023-03-16T10:21:48;8.93;;;6.93;;
27802;SDS011;15182;48.174;11.562;2023-03-16T10:24:25;7.80;;;7.17;;
27802;SDS011;15182;48.174;11.562;2023-03-16T10:27:09;11.47;;;8.23;;
27802;SDS011;15182;48.174;11.562;2023-03-16T10:29:49;8.37;;;7.57;;
27802;SDS011;15182;48.174;11.562;2023-03-16T10:32:21;7.70;;;7.20;;
27802;SDS011;15182;48.174;11.562;2023-03-16T10:34:59;8.07;;;7.40;;
27802;SDS011;15182;48.174;11.562;2023-03-16T10:37:37;8.00;;;7.30;;
27802;SDS011;15182;48.174;11.562;2023-03-16T10:40:08;8.00;;;7.40;;
27802;SDS011;15182;48.174;11.562;2023-03-16T10:42:41;6.93;;;6.43;;
27802;SDS011;15182;48.174;11.562;2023-03-16T10:45:19;8.20;;;7.50;;
27802;SDS011;15182;48.174;11.562;2023-03-16T10:48:05;7.37;;;6.73;;
27802;SDS011;15182;48.174;11.562;2023-03-16T10:50:47;11.23;;;7.27;;
27802;SDS011;15182;48.174;11.562;2023-03-16T10:53:24;8.00;;;6.67;;
27802;SDS011;15182;48.174;11.562;2023-03-16T10:56:00;7.30;;;6.60;;
27802;SDS011;15182;48.174;11.562;2023-03-16T10:58:40;7.17;;;6.57;;
27802;SDS011;15182;48.174;11.562;2023-03-16T11:01:16;9.03;;;6.87;;
27802;SDS011;15182;48.174;11.562;2023-03-16T11:03:53;8.13;;;6.60;;
27802;SDS011;15182;48.174;11.562;2023-03-16T11:06:27;7.17;;;6.47;;
27802;SDS011;15182;48.174;11.562;2023-03-16T11:09:05;6.60;;;6.20;;
27802;SDS011;15182;48.174;11.562;2023-03-16T11:11:45;7.13;;;6.63;;
27802;SDS011;15182;48.174;11.562;2023-03-16T11:14:20;6.97;;;6.50;;
27802;SDS011;15182;48.174;11.562;2023-03-16T11:16:58;6.77;;;6.37;;
27802;SDS011;15182;48.174;11.562;2023-03-16T11:19:38;6.70;;;5.97;;
27802;SDS011;15182;48.174;11.562;2023-03-16T11:22:16;7.53;;;6.73;;
27802;SDS011;15182;48.174;11.562;2023-03-16T11:24:51;6.80;;;6.37;;
27802;SDS011;15182;48.174;11.562;2023-03-16T11:27:32;6.40;;;5.90;;
27802;SDS011;15182;48.174;11.562;2023-03-16T11:30:10;7.03;;;6.57;;
27802;SDS011;15182;48.174;11.562;2023-03-16T11:32:49;6.67;;;6.17;;
27802;SDS011;15182;48.174;11.562;2023-03-16T11:35:22;7.10;;;6.50;;
27802;SDS011;15182;48.174;11.562;2023-03-16T11:38:09;11.97;;;7.10;;
27802;SDS011;15182;48.174;11.562;2023-03-16T11:40:46;9.43;;;6.87;;
27802;SDS011;15182;48.174;11.562;2023-03-16T11:43:32;6.87;;;6.37;;
27802;SDS011;15182;48.174;11.562;2023-03-16T11:46:16;7.90;;;7.20;;
27802;SDS011;15182;48.174;11.562;2023-03-16T11:48:56;6.90;;;6.37;;
27802;SDS011;15182;48.174;11.562;2023-03-16T11:51:46;6.60;;;6.10;;
27802;SDS011;15182;48.174;11.562;2023-03-16T11:54:34;6.97;;;6.47;;
27802;SDS011;15182;48.174;11.562;2023-03-16T11:57:18;7.13;;;6.63;;
27802;SDS011;15182;48.174;11.562;2023-03-16T12:00:18;5.87;;;5.50;;
27802;SDS011;15182;48.174;11.562;2023-03-16T12:03:03;6.03;;;5.70;;
27802;SDS011;15182;48.174;11.562;2023-03-16T12:05:58;5.67;;;5.37;;
27802;SDS011;15182;48.174;11.562;2023-03-16T12:08:40;6.07;;;5.67;;
27802;SDS011;15182;48.174;11.562;2023-03-16T12:11:22;5.80;;;5.43;;
27802;SDS011;15182;48.174;11.562;2023-03-16T12:14:04;6.03;;;5.60;;
27802;SDS011;15182;48.174;11.562;2023-03-16T12:16:44;6.23;;;5.90;;
27802;SDS011;15182;48.174;11.562;2023-03-16T12:19:23;5.53;;;5.23;;
27802;SDS011;15182;48.174;11.562;2023-03-16T12:22:06;10.83;;;5.93;;
27802;SDS011;15182;48.174;11.562;2023-03-16T12:24:47;5.67;;;5.33;;
27802;SDS011;15182;48.174;11.562;2023-03-16T12:27:22;4.77;;;4.57;;
27802;SDS011;15182;48.174;11.562;2023-03-16T12:30:00;5.57;;;5.27;;
27802;SDS011;15182;48.174;11.562;2023-03-16T12:32:51;5.83;;;5.53;;
27802;SDS011;15182;48.174;11.562;2023-03-16T12:35:31;5.27;;;5.00;;
27802;SDS011;15182;48.174;11.562;2023-03-16T12:38:24;5.20;;;4.93;;
27802;SDS011;15182;48.174;11.562;2023-03-16T12:41:10;5.03;;;4.83;;
27802;SDS011;15182;48.174;11.562;2023-03-16T12:44:00;5.13;;;4.80;;
27802;SDS011;15182;48.174;11.562;2023-03-16T12:46:41;5.17;;;4.93;;
27802;SDS011;15182;48.174;11.562;2023-03-16T12:49:20;4.60;;;4.40;;
27802;SDS011;15182;48.174;11.562;2023-03-16T12:51:57;5.13;;;4.93;;
27802;SDS011;15182;48.174;11.562;2023-03-16T12:54:33;4.80;;;4.60;;
27802;SDS011;15182;48.174;11.562;2023-03-16T12:57:16;4.47;;;4.17;;
27802;SDS011;15182;48.174;11.562;2023-03-16T12:59:54;4.00;;;3.90;;
27802;SDS011;15182;48.174;11.562;2023-03-16T13:02:33;3.90;;;3.80;;
27802;SDS011;15182;48.174;11.562;2023-03-16T13:05:09;4.80;;;4.60;;
27802;SDS011;15182;48.174;11.562;2023-03-16T13:07:48;4.70;;;4.50;;
27802;SDS011;15182;48.174;11.562;2023-03-16T13:10:31;4.57;;;4.33;;
27802;SDS011;15182;48.174;11.562;2023-03-16T13:13:08;4.43;;;4.27;;
27802;SDS011;15182;48.174;11.562;2023-03-16T13:15:43;6.33;;;4.27;;
27802;SDS011;15182;48.174;11.562;2023-03-16T13:18:26;3.83;;;3.73;;
27802;SDS011;15182;48.174;11.562;2023-03-16T13:21:15;4.13;;;4.03;;
27802;SDS011;15182;48.174;11.562;2023-03-16T13:23:54;3.57;;;3.47;;
27802;SDS011;15182;48.174;11.562;2023-03-16T13:26:39;4.03;;;3.50;;
27802;SDS011;15182;48.174;11.562;2023-03-16T13:29:22;4.00;;;3.90;;
27802;SDS011;15182;48.174;11.562;2023-03-16T13:31:56;4.03;;;3.93;;
27802;SDS011;15182;48.174;11.562;2023-03-16T13:34:36;4.30;;;4.20;;
27802;SDS011;15182;48.174;11.562;2023-03-16T13:37:13;4.23;;;4.03;;
27802;SDS011;15182;48.174;11.562;2023-03-16T13:39:53;4.10;;;3.90;;
27802;SDS011;15182;48.174;11.562;2023-03-16T13:42:27;3.90;;;3.73;;
27802;SDS011;15182;48.174;11.562;2023-03-16T13:45:07;3.40;;;3.30;;
27802;SDS011;15182;48.174;11.562;2023-03-16T13:47:45;2.97;;;2.97;;
27802;SDS011;15182;48.174;11.562;2023-03-16T13:50:20;3.47;;;3.37;;
27802;SDS011;15182;48.174;11.562;2023-03-16T13:52:53;3.27;;;3.17;;
27802;SDS011;15182;48.174;11.562;2023-03-16T13:55:31;3.50;;;3.40;;
27802;SDS011;15182;48.174;11.562;2023-03-16T13:58:05;4.60;;;3.23;;
27802;SDS011;15182;48.174;11.562;2023-03-16T14:00:53;3.50;;;3.40;;
27802;SDS011;15182;48.174;11.562;2023-03-16T14:03:31;3.30;;;3.27;;
27802;SDS011;15182;48.174;11.562;2023-03-16T14:06:05;3.07;;;2.97;;
27802;SDS011;15182;48.174;11.562;2023-03-16T14:08:50;3.20;;;3.10;;
27802;SDS011;15182;48.174;11.562;2023-03-16T14:11:30;3.07;;;3.07;;
27802;SDS011;15182;48.174;11.562;2023-03-16T14:14:11;2.90;;;2.83;;
27802;SDS011;15182;48.174;11.562;2023-03-16T14:16:45;3.10;;;3.00;;
27802;SDS011;15182;48.174;11.562;2023-03-16T14:19:18;2.77;;;2.73;;
27802;SDS011;15182;48.174;11.562;2023-03-16T14:22:00;3.00;;;2.90;;
27802;SDS011;15182;48.174;11.562;2023-03-16T14:24:36;2.87;;;2.87;;
27802;SDS011;15182;48.174;11.562;2023-03-16T14:27:15;3.00;;;2.83;;
27802;SDS011;15182;48.174;11.562;2023-03-16T14:29:49;3.00;;;2.90;;
27802;SDS011;15182;48.174;11.562;2023-03-16T14:32:26;3.00;;;2.77;;
27802;SDS011;15182;48.174;11.562;2023-03-16T14:34:59;2.90;;;2.90;;
27802;SDS011;15182;48.174;11.562;2023-03-16T14:37:38;3.47;;;3.17;;
27802;SDS011;15182;48.174;11.562;2023-03-16T14:40:21;3.37;;;3.20;;
27802;SDS011;15182;48.174;11.562;2023-03-16T14:42:56;3.10;;;2.80;;
27802;SDS011;15182;48.174;11.562;2023-03-16T14:45:33;3.07;;;3.07;;
27802;SDS011;15182;48.174;11.562;2023-03-16T14:48:11;3.47;;;3.37;;
27802;SDS011;15182;48.174;11.562;2023-03-16T14:50:50;3.30;;;3.30;;
27802;SDS011;15182;48.174;11.562;2023-03-16T14:53:22;3.30;;;3.10;;
27802;SDS011;15182;48.174;11.562;2023-03-16T14:55:54;3.30;;;3.20;;
27802;SDS011;15182;48.174;11.562;2023-03-16T14:58:30;3.07;;;2.97;;
27802;SDS011;15182;48.174;11.562;2023-03-16T15:01:01;3.20;;;3.10;;
27802;SDS011;15182;48.174;11.562;2023-03-16T15:03:34;3.20;;;3.10;;
27802;SDS011;15182;48.174;11.562;2023-03-16T15:06:07;3.00;;;2.90;;
27802;SDS011;15182;48.174;11.562;2023-03-16T15:08:41;3.20;;;3.10;;
27802;SDS011;15182;48.174;11.562;2023-03-16T15:11:15;3.30;;;3.00;;
27802;SDS011;15182;48.174;11.562;2023-03-16T15:13:49;3.00;;;3.00;;
27802;SDS011;15182;48.174;11.562;2023-03-16T15:16:30;3.43;;;3.33;;
27802;SDS011;15182;48.174;11.562;2023-03-16T15:19:03;2.77;;;2.77;;
27802;SDS011;15182;48.174;11.562;2023-03-16T15:21:36;3.23;;;3.13;;